Time;durP1;ratioP1;P1;durP2;ratioP2;P2;SDS_P1;SDS_P2;PMS_P1;PMS_P2;Temp;Humidity;BMP_temperature;BMP_pressure;BME280_temperature;BME280_humidity;BME280_pressure;Samples;Min_cycle;Max_cycle;Signal;HPM_P1;HPM_P2
2019/05/23 00:00:16;;;;;;;22.1;17.1;;;;;;;9.37;85.58105;965.9355;;;;
2019/05/23 00:04:59;;;;;;;18.6;15.7;;;;;;;9.23;85.92676;965.942;;;;
2019/05/23 00:07:20;;;;;;;20.7;17;;;;;;;9.24;85.90527;965.954;;;;
2019/05/23 00:09:45;;;;;;;18.6;16.2;;;;;;;9.17;86.16797;965.9238;;;;
2019/05/23 00:14:41;;;;;;;20.6;17.1;;;;;;;9.14;86.2207;965.9528;;;;
2019/05/23 00:17:01;;;;;;;20.7;16.9;;;;;;;9.06;86.60059;965.9651;;;;
2019/05/23 00:19:25;;;;;;;20.1;17.2;;;;;;;9.14;86.24414;965.8705;;;;
2019/05/23 00:21:51;;;;;;;18.9;16;;;;;;;9.11;86.32031;965.8608;;;;
2019/05/23 00:24:15;;;;;;;20.7;17.1;;;;;;;9.1;86.22559;965.8786;;;;
2019/05/23 00:26:41;;;;;;;18.3;16.2;;;;;;;9.16;86.62109;965.9067;;;;
2019/05/23 00:29:06;;;;;;;18.1;15.4;;;;;;;9.15;85.62988;965.9255;;;;
2019/05/23 00:31:43;;;;;;;18.9;16.1;;;;;;;9.06;85.55469;965.8917;;;;
2019/05/23 00:33:57;;;;;;;17.4;15.3;;;;;;;9.02;85.31543;965.9048;;;;
2019/05/23 00:36:23;;;;;;;20;16.7;;;;;;;9.01;85.62305;965.851;;;;
2019/05/23 00:38:52;;;;;;;18.3;16.3;;;;;;;8.98;85.78125;965.8234;;;;
2019/05/23 00:41:36;;;;;;;18.4;15.4;;;;;;;8.98;85.6543;965.8663;;;;
2019/05/23 00:44:01;;;;;;;17.3;15.2;;;;;;;8.95;86.09082;965.9123;;;;
2019/05/23 00:46:26;;;;;;;18.6;16.2;;;;;;;8.92;86.15332;965.9035;;;;
2019/05/23 00:48:51;;;;;;;18.7;14.6;;;;;;;8.89;86.47363;965.8635;;;;
2019/05/23 00:51:17;;;;;;;19.4;15.5;;;;;;;8.9;86.08984;965.8367;;;;
2019/05/23 00:53:41;;;;;;;18;15.7;;;;;;;8.91;86.15137;965.8527;;;;
2019/05/23 00:56:08;;;;;;;17.7;15.1;;;;;;;8.9;86.08984;965.8714;;;;
2019/05/23 00:58:32;;;;;;;17.2;15.2;;;;;;;8.84;85.89355;965.8681;;;;
2019/05/23 01:00:57;;;;;;;18.6;15.5;;;;;;;8.81;85.76074;965.8459;;;;
2019/05/23 01:03:22;;;;;;;18.3;15.8;;;;;;;8.79;86.0918;965.883;;;;
2019/05/23 01:05:48;;;;;;;18.4;16;;;;;;;8.74;86.57129;965.9308;;;;
2019/05/23 01:08:13;;;;;;;16;14.3;;;;;;;8.76;86.17969;965.908;;;;
2019/05/23 01:10:39;;;;;;;17.8;15.2;;;;;;;8.84;86.39355;965.9208;;;;
2019/05/23 01:13:04;;;;;;;20.4;15.8;;;;;;;8.82;86.07422;965.9274;;;;
2019/05/23 01:15:29;;;;;;;18.3;16.2;;;;;;;8.88;85.50586;965.8778;;;;
2019/05/23 01:17:54;;;;;;;18.6;16.2;;;;;;;8.8;86.11719;965.8821;;;;
2019/05/23 01:20:26;;;;;;;18.3;15.6;;;;;;;8.82;85.93457;965.9661;;;;
2019/05/23 01:22:44;;;;;;;17.9;14.3;;;;;;;8.75;85.81836;965.8911;;;;
2019/05/23 01:25:10;;;;;;;16.4;14.7;;;;;;;8.7;85.87891;965.8624;;;;
2019/05/23 01:27:41;;;;;;;15.7;14;;;;;;;8.71;85.78809;965.8823;;;;
2019/05/23 01:30:06;;;;;;;16.8;14.2;;;;;;;8.61;85.89453;965.9236;;;;
2019/05/23 01:32:42;;;;;;;16.5;14.7;;;;;;;8.59;85.97168;965.8826;;;;
2019/05/23 01:34:56;;;;;;;16.1;13.8;;;;;;;8.54;86.42578;965.9657;;;;
2019/05/23 01:37:25;;;;;;;15.7;13.7;;;;;;;8.53;86.08691;965.8803;;;;
2019/05/23 01:39:51;;;;;;;19.1;14.4;;;;;;;8.45;86.22266;965.932;;;;
2019/05/23 01:42:16;;;;;;;17;14.1;;;;;;;8.43;86.36914;965.986;;;;
2019/05/23 01:44:41;;;;;;;17.1;14.5;;;;;;;8.43;85.88184;965.9344;;;;
2019/05/23 01:47:07;;;;;;;17.2;15.4;;;;;;;8.62;85.16699;965.9348;;;;
2019/05/23 01:49:36;;;;;;;19.1;15.5;;;;;;;8.54;85.43945;965.9489;;;;
2019/05/23 01:52:02;;;;;;;17.8;15.9;;;;;;;8.59;84.81152;965.9642;;;;
2019/05/23 01:54:27;;;;;;;17.2;15.4;;;;;;;8.49;85.20801;965.9578;;;;
2019/05/23 01:56:52;;;;;;;17.1;14.4;;;;;;;8.47;86.14258;965.9561;;;;
2019/05/23 01:59:35;;;;;;;17.2;14.7;;;;;;;8.44;85.47656;965.9633;;;;
2019/05/23 02:02:00;;;;;;;17.1;14.4;;;;;;;8.53;84.41406;965.9844;;;;
2019/05/23 02:04:25;;;;;;;17.5;15.1;;;;;;;8.44;85.38477;965.9934;;;;
2019/05/23 02:06:51;;;;;;;16.1;14.4;;;;;;;8.42;85.85742;965.9442;;;;
2019/05/23 02:09:16;;;;;;;15.9;13.6;;;;;;;8.36;85.50879;965.9239;;;;
2019/05/23 02:11:41;;;;;;;17.4;13.3;;;;;;;8.37;85.24512;965.9402;;;;
2019/05/23 02:14:06;;;;;;;14.6;13.1;;;;;;;8.37;85.09473;965.9402;;;;
2019/05/23 02:16:34;;;;;;;15.1;13.5;;;;;;;8.41;85.32031;965.8934;;;;
2019/05/23 02:18:59;;;;;;;15.5;13.5;;;;;;;8.41;84.91406;965.9233;;;;
2019/05/23 02:21:25;;;;;;;15.3;13.3;;;;;;;8.34;85.79492;965.9302;;;;
2019/05/23 02:23:50;;;;;;;15.9;14.2;;;;;;;8.33;84.88672;965.8844;;;;
2019/05/23 02:26:15;;;;;;;15.9;14;;;;;;;8.42;84.99707;965.9313;;;;
2019/05/23 02:28:41;;;;;;;14.7;13.1;;;;;;;8.35;86.14453;965.9205;;;;
2019/05/23 02:31:05;;;;;;;16.6;13.5;;;;;;;8.4;85.6084;965.882;;;;
2019/05/23 02:33:33;;;;;;;15.5;13;;;;;;;8.41;85.00684;965.8934;;;;
2019/05/23 02:35:58;;;;;;;14.9;13.3;;;;;;;8.34;85.69043;965.9174;;;;
2019/05/23 02:40:56;;;;;;;15.7;13.9;;;;;;;8.38;86.27734;965.8748;;;;
2019/05/23 02:43:16;;;;;;;15.1;13.5;;;;;;;8.43;85.33691;965.865;;;;
2019/05/23 02:45:42;;;;;;;17;13.8;;;;;;;8.42;85.33301;965.8667;;;;
2019/05/23 02:48:10;;;;;;;17.3;14.1;;;;;;;8.42;85.5791;965.8619;;;;
2019/05/23 02:50:30;;;;;;;15.5;13.9;;;;;;;8.49;85.66113;965.8723;;;;
2019/05/23 02:52:56;;;;;;;17.1;14.1;;;;;;;8.56;84.8877;965.8344;;;;
2019/05/23 02:55:21;;;;;;;16.7;15;;;;;;;8.56;84.88574;965.8262;;;;
2019/05/23 02:57:47;;;;;;;16.8;15;;;;;;;8.59;85.04199;965.8615;;;;
2019/05/23 03:00:12;;;;;;;16.7;14.6;;;;;;;8.56;85.14063;965.865;;;;
2019/05/23 03:02:42;;;;;;;17.1;14.3;;;;;;;8.47;85.1582;965.8521;;;;
2019/05/23 03:05:03;;;;;;;17.7;14.5;;;;;;;8.48;85.75391;965.8296;;;;
2019/05/23 03:07:28;;;;;;;15.3;13.7;;;;;;;8.54;85.24219;965.8447;;;;
2019/05/23 03:09:53;;;;;;;16.7;14.6;;;;;;;8.55;85.49902;965.8958;;;;
2019/05/23 03:12:18;;;;;;;17.3;14.2;;;;;;;8.52;85.3291;965.8046;;;;
2019/05/23 03:14:44;;;;;;;15.7;13.3;;;;;;;8.53;85.40234;965.7512;;;;
2019/05/23 03:17:12;;;;;;;16.6;14.6;;;;;;;8.54;84.97461;965.8148;;;;
2019/05/23 03:19:34;;;;;;;17.3;14.2;;;;;;;8.57;85.82715;965.8374;;;;
2019/05/23 03:21:59;;;;;;;16;14.2;;;;;;;8.6;85.20605;965.8004;;;;
2019/05/23 03:24:24;;;;;;;18.6;16.6;;;;;;;8.53;84.8457;965.8633;;;;
2019/05/23 03:27:14;;;;;;;20.1;15.7;;;;;;;8.46;85.12207;965.8498;;;;
2019/05/23 03:29:32;;;;;;;18.8;16.1;;;;;;;8.42;85.71777;965.832;;;;
2019/05/23 03:32:08;;;;;;;20;15.7;;;;;;;8.34;86.07324;965.7584;;;;
2019/05/23 03:34:22;;;;;;;19.4;15.6;;;;;;;8.36;86.12207;965.7866;;;;
2019/05/23 03:36:46;;;;;;;19.7;15.4;;;;;;;8.29;85.76074;965.7981;;;;
2019/05/23 03:39:11;;;;;;;19.6;15.2;;;;;;;8.29;85.71484;965.8285;;;;
2019/05/23 03:41:36;;;;;;;18.3;15.2;;;;;;;8.25;85.98438;965.7723;;;;
2019/05/23 03:44:02;;;;;;;18.2;15;;;;;;;8.28;85.46973;965.7947;;;;
2019/05/23 03:46:28;;;;;;;18.2;15.3;;;;;;;8.27;85.87402;965.7964;;;;
2019/05/23 03:48:52;;;;;;;16.2;14.5;;;;;;;8.24;85.72754;965.8295;;;;
2019/05/23 03:51:17;;;;;;;18.5;14.5;;;;;;;8.2;85.9873;965.8246;;;;
2019/05/23 03:53:42;;;;;;;17;14.4;;;;;;;8.22;85.6543;965.9264;;;;
2019/05/23 03:56:07;;;;;;;18.5;14.9;;;;;;;8.19;86.09961;965.8739;;;;
2019/05/23 03:58:32;;;;;;;18.4;15;;;;;;;8.15;86.55664;965.8393;;;;
2019/05/23 04:02:27;;;;;;;17.4;13.8;;;;;;;8.25;85.96289;965.8538;;;;
2019/05/23 04:04:52;;;;;;;16.1;14.3;;;;;;;8.19;85.73047;965.8561;;;;
2019/05/23 04:07:17;;;;;;;16.9;13.8;;;;;;;8.17;86.22363;965.8495;;;;
2019/05/23 04:09:42;;;;;;;18.6;14.1;;;;;;;8.16;85.95508;965.8594;;;;
2019/05/23 04:12:07;;;;;;;16.4;14.2;;;;;;;8.22;86.07227;965.853;;;;
2019/05/23 04:14:32;;;;;;;18.4;14.6;;;;;;;8.17;86.28125;965.8278;;;;
2019/05/23 04:16:58;;;;;;;16.1;14.2;;;;;;;8.24;85.97266;965.889;;;;
2019/05/23 04:19:23;;;;;;;17.4;14.2;;;;;;;8.33;85.83789;965.8328;;;;
2019/05/23 04:21:48;;;;;;;19.5;14.6;;;;;;;8.32;85.83594;965.8212;;;;
2019/05/23 04:24:17;;;;;;;17.1;14.7;;;;;;;8.34;85.75977;965.9431;;;;
2019/05/23 04:26:43;;;;;;;17.7;14.4;;;;;;;8.33;86.04688;965.9406;;;;
2019/05/23 04:29:26;;;;;;;18;14.9;;;;;;;8.36;85.91309;965.9116;;;;
2019/05/23 04:31:50;;;;;;;17.2;14.2;;;;;;;8.51;85.31836;965.9382;;;;
2019/05/23 04:34:15;;;;;;;17;14.3;;;;;;;8.61;84.41992;965.9535;;;;
2019/05/23 04:36:40;;;;;;;16.1;13.5;;;;;;;8.7;84.78613;965.996;;;;
2019/05/23 04:39:06;;;;;;;18.4;14.9;;;;;;;8.84;84.51172;965.9586;;;;
2019/05/23 04:41:30;;;;;;;18.1;16;;;;;;;9.18;83.16113;965.926;;;;
2019/05/23 04:44:12;;;;;;;20.8;16.7;;;;;;;9.19;82.96582;965.9382;;;;
2019/05/23 04:46:38;;;;;;;23.2;18.7;;;;;;;9.08;84.14063;965.9419;;;;
2019/05/23 04:49:03;;;;;;;20.6;16.9;;;;;;;9.03;84.58496;965.9725;;;;
2019/05/23 04:51:28;;;;;;;24.9;17.8;;;;;;;9.09;84.81641;965.8804;;;;
2019/05/23 04:53:53;;;;;;;21.9;18.5;;;;;;;9.11;84.75098;965.9512;;;;
2019/05/23 04:56:18;;;;;;;22.6;17.9;;;;;;;9.24;85.04492;965.9799;;;;
2019/05/23 04:58:44;;;;;;;23.9;17.7;;;;;;;9.26;84.82715;965.9824;;;;
2019/05/23 05:01:27;;;;;;;23;18.2;;;;;;;9.4;84.26074;965.98;;;;
2019/05/23 05:03:59;;;;;;;21.7;16.9;;;;;;;9.66;84.08984;965.8824;;;;
2019/05/23 05:06:25;;;;;;;19.8;16.1;;;;;;;10.56;79.81152;965.9744;;;;
2019/05/23 05:08:51;;;;;;;19;15.6;;;;;;;11.24;76.75;965.9341;;;;
2019/05/23 05:11:15;;;;;;;20;16.3;;;;;;;11.16;77.14453;965.9302;;;;
2019/05/23 05:13:41;;;;;;;22;17.5;;;;;;;10.62;79.64746;965.9116;;;;
2019/05/23 05:16:09;;;;;;;19.1;17;;;;;;;10.36;80.82422;965.9236;;;;
2019/05/23 05:18:36;;;;;;;20.7;18.3;;;;;;;10.21;81.78613;965.9109;;;;
2019/05/23 05:21:07;;;;;;;21.4;17.8;;;;;;;10.23;82.00977;965.9389;;;;
2019/05/23 05:23:33;;;;;;;23.6;18.6;;;;;;;10.25;82.3291;965.9278;;;;
2019/05/23 05:26:02;;;;;;;23.6;19;;;;;;;10.25;82.29395;965.9494;;;;
2019/05/23 05:28:27;;;;;;;24;18.8;;;;;;;10.26;83.125;965.9956;;;;
2019/05/23 05:30:53;;;;;;;25.3;19.5;;;;;;;10.37;82.33105;965.9914;;;;
2019/05/23 05:33:18;;;;;;;24.5;19.7;;;;;;;10.44;82.56445;966.0134;;;;
2019/05/23 05:35:43;;;;;;;30.7;24.1;;;;;;;10.51;82.55469;965.9886;;;;
2019/05/23 05:38:24;;;;;;;27.2;21.1;;;;;;;10.55;82.57324;966.0231;;;;
2019/05/23 05:40:56;;;;;;;29.3;22;;;;;;;10.56;82.7627;966.0083;;;;
2019/05/23 05:43:21;;;;;;;25.3;21.6;;;;;;;10.64;82.50977;966.0297;;;;
2019/05/23 05:45:55;;;;;;;28;20.8;;;;;;;10.74;81.88672;966.0447;;;;
2019/05/23 05:48:20;;;;;;;25.7;20.6;;;;;;;10.86;81.23145;966.0912;;;;
2019/05/23 05:50:45;;;;;;;29;21.9;;;;;;;11.15;78.90527;965.9747;;;;
2019/05/23 05:53:11;;;;;;;28.2;21.6;;;;;;;11.33;77.43164;965.9579;;;;
2019/05/23 05:55:36;;;;;;;28.9;21;;;;;;;11.52;76.75195;966.009;;;;
2019/05/23 05:58:01;;;;;;;29;21.3;;;;;;;11.57;76.45801;965.9895;;;;
2019/05/23 06:00:47;;;;;;;29.5;21.3;;;;;;;11.71;76.68164;966.0211;;;;
2019/05/23 06:03:03;;;;;;;30.7;21.9;;;;;;;11.89;75.83594;965.9734;;;;
2019/05/23 06:07:57;;;;;;;28.3;21.4;;;;;;;11.99;75.19727;966.0613;;;;
2019/05/23 06:10:22;;;;;;;28.7;21.5;;;;;;;12.07;75.90332;966.103;;;;
2019/05/23 06:13:04;;;;;;;30.5;24.1;;;;;;;12.04;73.65039;966.1454;;;;
2019/05/23 06:15:30;;;;;;;27.7;22.5;;;;;;;12.1;74.70117;966.1172;;;;
2019/05/23 06:17:55;;;;;;;29.9;22.2;;;;;;;12.28;73.83105;966.1605;;;;
2019/05/23 06:20:20;;;;;;;30.6;22.8;;;;;;;12.36;73.68066;966.1454;;;;
2019/05/23 06:22:45;;;;;;;31.8;24.1;;;;;;;12.41;74.96484;966.1578;;;;
2019/05/23 06:25:10;;;;;;;33;24.2;;;;;;;12.35;74.49902;966.0693;;;;
2019/05/23 06:27:35;;;;;;;29.8;22.3;;;;;;;12.43;73.58594;966.1119;;;;
2019/05/23 06:30:01;;;;;;;29.7;22.3;;;;;;;12.66;73.12305;966.0316;;;;
2019/05/23 06:32:26;;;;;;;28.4;21.7;;;;;;;12.77;71.89844;966.0873;;;;
2019/05/23 06:34:52;;;;;;;28.1;21.9;;;;;;;12.86;70.31934;966.1061;;;;
2019/05/23 06:37:17;;;;;;;26.7;21.5;;;;;;;12.76;70.30273;966.0364;;;;
2019/05/23 06:39:44;;;;;;;26.2;21.5;;;;;;;12.78;71.33887;966.0765;;;;
2019/05/23 06:42:09;;;;;;;28.3;21.6;;;;;;;12.87;69.86426;966.096;;;;
2019/05/23 06:44:36;;;;;;;29.9;22.1;;;;;;;12.96;70.03125;966.1108;;;;
2019/05/23 06:47:01;;;;;;;25.5;21.6;;;;;;;13.01;68.53906;966.113;;;;
2019/05/23 06:49:26;;;;;;;27.5;21.9;;;;;;;12.99;69.27344;966.0547;;;;
2019/05/23 06:51:51;;;;;;;29.1;22.9;;;;;;;13.08;69.07617;966.0444;;;;
2019/05/23 06:54:16;;;;;;;30.4;23.4;;;;;;;13.14;69.86133;966.0665;;;;
2019/05/23 06:56:41;;;;;;;30.2;23.4;;;;;;;13.04;69.96191;966.0581;;;;
2019/05/23 06:59:07;;;;;;;29.6;23.4;;;;;;;13.06;69.12012;966.0551;;;;
2019/05/23 07:01:32;;;;;;;29.8;24.3;;;;;;;13.14;69.53223;966.0365;;;;
2019/05/23 07:03:57;;;;;;;30.3;23.6;;;;;;;13.14;68.37207;965.9625;;;;
2019/05/23 07:06:22;;;;;;;32.4;27.6;;;;;;;13.18;69.41992;966.0186;;;;
2019/05/23 07:08:49;;;;;;;31.3;24.1;;;;;;;13.19;69.79883;965.9649;;;;
2019/05/23 07:11:31;;;;;;;29.8;24;;;;;;;13.33;68.15527;965.9346;;;;
2019/05/23 07:13:57;;;;;;;30.8;24.1;;;;;;;13.4;68.44727;965.9989;;;;
2019/05/23 07:16:33;;;;;;;27.5;22.1;;;;;;;13.46;67.92871;965.9913;;;;
2019/05/23 07:19:06;;;;;;;27.3;22.3;;;;;;;13.6;68.04395;965.9658;;;;
2019/05/23 07:21:31;;;;;;;29.8;23.2;;;;;;;13.47;67.61328;965.9302;;;;
2019/05/23 07:24:09;;;;;;;27.3;21.7;;;;;;;13.57;67.82813;965.9867;;;;
2019/05/23 07:26:42;;;;;;;27.3;22;;;;;;;13.78;67.66113;965.9724;;;;
2019/05/23 07:29:10;;;;;;;32.2;21.8;;;;;;;13.88;66.50195;965.8342;;;;
2019/05/23 07:31:35;;;;;;;27.7;21.2;;;;;;;13.83;66.62305;965.9573;;;;
2019/05/23 07:34:01;;;;;;;27;20.4;;;;;;;14.02;66.39258;965.9247;;;;
2019/05/23 07:36:30;;;;;;;25.1;20.3;;;;;;;14.1;65.28809;965.8797;;;;
2019/05/23 07:38:56;;;;;;;22.1;19;;;;;;;14.21;63.31836;965.8998;;;;
2019/05/23 07:41:29;;;;;;;22.5;19;;;;;;;14.33;64.12402;965.9278;;;;
2019/05/23 07:44:07;;;;;;;22.3;18.3;;;;;;;14.38;63.67188;965.913;;;;
2019/05/23 07:46:32;;;;;;;21.7;17.7;;;;;;;14.47;61.7334;965.9048;;;;
2019/05/23 07:48:57;;;;;;;21.2;17.1;;;;;;;14.61;63.0127;965.8911;;;;
2019/05/23 07:51:38;;;;;;;21.6;17.1;;;;;;;14.64;61.0625;965.8571;;;;
2019/05/23 07:54:26;;;;;;;22.7;17.9;;;;;;;14.63;61.62598;965.9059;;;;
2019/05/23 07:56:36;;;;;;;19.8;16.3;;;;;;;14.71;60.11914;965.8608;;;;
2019/05/23 07:59:11;;;;;;;24.7;17;;;;;;;14.97;60.53125;965.8823;;;;
2019/05/23 08:01:49;;;;;;;17.9;14.8;;;;;;;15.11;58.99512;965.868;;;;
2019/05/23 08:04:11;;;;;;;17;14.5;;;;;;;15.25;57.57715;965.8445;;;;
2019/05/23 08:06:43;;;;;;;19.9;15.1;;;;;;;15.26;58.74414;965.8093;;;;
2019/05/23 08:09:20;;;;;;;15.2;13.3;;;;;;;15.36;57.61426;965.8;;;;
2019/05/23 08:11:46;;;;;;;15.1;12.7;;;;;;;15.43;54.80469;965.7073;;;;
2019/05/23 08:14:11;;;;;;;16.2;13.4;;;;;;;15.5;56.00488;965.7553;;;;
2019/05/23 08:16:40;;;;;;;14.3;12;;;;;;;15.57;54.89258;965.824;;;;
2019/05/23 08:19:12;;;;;;;11.9;10.6;;;;;;;15.57;52.8418;965.7667;;;;
2019/05/23 08:21:55;;;;;;;13.5;10.5;;;;;;;15.78;52.80664;965.765;;;;
2019/05/23 08:24:46;;;;;;;12.7;10.7;;;;;;;15.89;51.15625;965.6669;;;;
2019/05/23 08:27:11;;;;;;;13.5;9.8;;;;;;;16.02;50.90039;965.68;;;;
2019/05/23 08:29:38;;;;;;;13.8;10.3;;;;;;;15.92;54.05176;965.711;;;;
2019/05/23 08:32:08;;;;;;;13.4;11;;;;;;;15.86;53.01855;965.6409;;;;
2019/05/23 08:34:34;;;;;;;12;10.3;;;;;;;15.84;50.79688;965.6994;;;;
2019/05/23 08:37:00;;;;;;;11.2;10;;;;;;;15.93;52.10645;965.6656;;;;
2019/05/23 08:39:28;;;;;;;14.8;11.5;;;;;;;15.83;51.12598;965.649;;;;
2019/05/23 08:42:07;;;;;;;13.2;11.1;;;;;;;15.75;50.03125;965.6636;;;;
2019/05/23 08:44:31;;;;;;;12;9.8;;;;;;;15.95;50.06543;965.7068;;;;
2019/05/23 08:46:56;;;;;;;10.6;8.4;;;;;;;16.22;49.31641;965.7481;;;;
2019/05/23 08:49:21;;;;;;;9.7;8.5;;;;;;;16.25;49.16699;965.7308;;;;
2019/05/23 08:51:46;;;;;;;13;8.8;;;;;;;16.4;48.56934;965.7488;;;;
2019/05/23 08:54:11;;;;;;;10.1;9;;;;;;;16.58;48.06836;965.7369;;;;
2019/05/23 08:56:36;;;;;;;12.5;9.1;;;;;;;16.72;46.90234;965.6943;;;;
2019/05/23 08:59:02;;;;;;;11.3;9;;;;;;;16.64;47.7207;965.6802;;;;
2019/05/23 09:01:39;;;;;;;11.1;9.1;;;;;;;16.3;47.95605;965.6227;;;;
2019/05/23 09:04:04;;;;;;;10.6;8.3;;;;;;;16.04;47.73926;965.6156;;;;
2019/05/23 09:06:29;;;;;;;14.3;9.1;;;;;;;16.23;49.08203;965.572;;;;
2019/05/23 09:09:09;;;;;;;12.7;10.4;;;;;;;16.42;48.63086;965.5623;;;;
2019/05/23 09:11:38;;;;;;;11.5;10.3;;;;;;;16.29;51.08594;965.5897;;;;
2019/05/23 09:14:05;;;;;;;11.8;9.7;;;;;;;15.85;49.83008;965.5677;;;;
2019/05/23 09:16:30;;;;;;;12.1;9.3;;;;;;;15.96;50.13867;965.6132;;;;
2019/05/23 09:19:18;;;;;;;12.2;9.7;;;;;;;15.55;49.86621;965.6616;;;;
2019/05/23 09:21:43;;;;;;;12.2;9.2;;;;;;;15.57;50.41211;965.5622;;;;
2019/05/23 09:24:08;;;;;;;12.1;9.2;;;;;;;15.57;50;965.6404;;;;
2019/05/23 09:26:33;;;;;;;12.6;9.2;;;;;;;15.75;49.95996;965.5381;;;;
2019/05/23 09:28:58;;;;;;;12.8;10;;;;;;;15.47;51.30859;965.5586;;;;
2019/05/23 09:31:30;;;;;;;13.8;10.3;;;;;;;15.57;50.97852;965.6144;;;;
2019/05/23 09:33:55;;;;;;;13.9;9.9;;;;;;;15.74;51.70508;965.5313;;;;
2019/05/23 09:36:20;;;;;;;15.4;9.9;;;;;;;15.84;50.72656;965.4866;;;;
2019/05/23 09:38:46;;;;;;;13.1;9.8;;;;;;;15.88;50.31836;965.5545;;;;
2019/05/23 09:41:12;;;;;;;11.9;9.9;;;;;;;16.1;50.34277;965.5159;;;;
2019/05/23 09:43:37;;;;;;;13.1;10.7;;;;;;;16.35;51.40039;965.5066;;;;
2019/05/23 09:46:03;;;;;;;13.1;10.4;;;;;;;16.46;48.91895;965.5178;;;;
2019/05/23 09:48:29;;;;;;;13.3;9.9;;;;;;;16.42;48.08789;965.5061;;;;
2019/05/23 09:50:53;;;;;;;11.7;10.1;;;;;;;16.35;49.92285;965.5589;;;;
2019/05/23 09:53:24;;;;;;;11.5;10.2;;;;;;;16.62;50.99316;965.4352;;;;
2019/05/23 09:55:53;;;;;;;12.7;9.3;;;;;;;16.77;47.7002;965.4439;;;;
2019/05/23 09:58:18;;;;;;;13.1;9.7;;;;;;;16.81;48.35547;965.4948;;;;
2019/05/23 10:00:43;;;;;;;12.9;10;;;;;;;16.83;47.9668;965.3826;;;;
2019/05/23 10:03:28;;;;;;;11.6;9.7;;;;;;;17.2;47.63965;965.3616;;;;
2019/05/23 10:05:53;;;;;;;12.7;9.9;;;;;;;17.2;47.23633;965.3264;;;;
2019/05/23 10:08:22;;;;;;;12.3;9.5;;;;;;;17.28;45.81348;965.3625;;;;
2019/05/23 10:10:47;;;;;;;10.6;8.9;;;;;;;17.3;45.05664;965.2598;;;;
2019/05/23 10:13:13;;;;;;;11.6;8.7;;;;;;;17.26;44.78027;965.2744;;;;
2019/05/23 10:15:52;;;;;;;10.4;8.5;;;;;;;17.3;45.23535;965.2153;;;;
2019/05/23 10:18:03;;;;;;;12.4;9.2;;;;;;;16.96;44.85645;965.3172;;;;
2019/05/23 10:20:28;;;;;;;10.7;9.3;;;;;;;17.05;44.85352;965.2175;;;;
2019/05/23 10:22:53;;;;;;;10;8.3;;;;;;;16.87;44.84766;965.2687;;;;
2019/05/23 10:25:27;;;;;;;9.2;8.2;;;;;;;16.52;45.08301;965.249;;;;
2019/05/23 10:27:52;;;;;;;10.2;9.2;;;;;;;16.28;47.18652;965.225;;;;
2019/05/23 10:30:17;;;;;;;10.9;8.8;;;;;;;16.17;47.03223;965.2408;;;;
2019/05/23 10:32:42;;;;;;;9.9;8.9;;;;;;;16.34;46.21191;965.2515;;;;
2019/05/23 10:35:08;;;;;;;9.7;8.3;;;;;;;16.57;47.0625;965.189;;;;
2019/05/23 10:37:33;;;;;;;12.4;8.5;;;;;;;16.69;44.29688;965.1677;;;;
2019/05/23 10:40:01;;;;;;;9.7;8.7;;;;;;;16.82;44.19141;965.1234;;;;
2019/05/23 10:42:27;;;;;;;12.8;9.1;;;;;;;16.92;43.64551;965.0531;;;;
2019/05/23 10:44:51;;;;;;;11.6;9.2;;;;;;;16.88;44.18652;965.0625;;;;
2019/05/23 10:47:16;;;;;;;10.6;8.7;;;;;;;16.86;43.72266;964.9611;;;;
2019/05/23 10:49:41;;;;;;;10.2;8.3;;;;;;;16.9;43.72656;965.0119;;;;
2019/05/23 10:52:07;;;;;;;9.1;8;;;;;;;17.16;43.96582;965.0098;;;;
2019/05/23 10:54:38;;;;;;;10.1;8.4;;;;;;;17.45;42.44336;965.0413;;;;
2019/05/23 10:57:03;;;;;;;10.4;8.9;;;;;;;17.6;41.72168;965.0594;;;;
2019/05/23 10:59:29;;;;;;;11.8;8.6;;;;;;;17.92;42.55859;964.9994;;;;
2019/05/23 11:02:09;;;;;;;10.3;8.6;;;;;;;18.2;42.66895;965.0415;;;;
2019/05/23 11:04:44;;;;;;;10.3;8.7;;;;;;;18.45;42.1123;965.0262;;;;
2019/05/23 11:07:18;;;;;;;10;7.7;;;;;;;18.4;40.97949;965.038;;;;
2019/05/23 11:10:02;;;;;;;9.3;8.3;;;;;;;18.33;40.36719;965.0129;;;;
2019/05/23 11:12:34;;;;;;;9.6;8;;;;;;;18.52;40.32617;964.9715;;;;
2019/05/23 11:15:07;;;;;;;10.9;8.2;;;;;;;18.15;38.8916;964.8872;;;;
2019/05/23 11:17:45;;;;;;;10.6;8.6;;;;;;;17.9;39.7832;964.9192;;;;
2019/05/23 11:20:16;;;;;;;9.6;8.6;;;;;;;17.76;40.14941;964.9615;;;;
2019/05/23 11:22:41;;;;;;;10.4;8.4;;;;;;;18.14;40.83594;964.8578;;;;
2019/05/23 11:25:17;;;;;;;10.5;8.5;;;;;;;17.98;40.09863;964.8635;;;;
2019/05/23 11:27:49;;;;;;;9.6;8.1;;;;;;;18.13;39.74414;964.8368;;;;
2019/05/23 11:30:29;;;;;;;9.8;8.6;;;;;;;18.47;38.99121;964.8391;;;;
2019/05/23 11:32:41;;;;;;;9.3;8.4;;;;;;;18.42;40.68457;964.8158;;;;
2019/05/23 11:35:06;;;;;;;9.6;8.4;;;;;;;18.89;39.69434;964.7798;;;;
2019/05/23 11:37:32;;;;;;;10.3;7.9;;;;;;;19;38.39648;964.7899;;;;
2019/05/23 11:39:57;;;;;;;10.2;8.5;;;;;;;19.25;39.31055;964.7908;;;;
2019/05/23 11:42:22;;;;;;;9.5;7.9;;;;;;;18.92;37.91406;964.72;;;;
2019/05/23 11:44:47;;;;;;;7.8;7;;;;;;;19.13;37.93262;964.6429;;;;
2019/05/23 11:47:12;;;;;;;9.7;7.7;;;;;;;19.17;36.95996;964.6895;;;;
2019/05/23 11:49:37;;;;;;;9.8;8.3;;;;;;;18.98;36.44434;964.6321;;;;
2019/05/23 11:52:04;;;;;;;9.5;8.4;;;;;;;18.87;35.9375;964.6038;;;;
2019/05/23 11:54:37;;;;;;;10.1;7.6;;;;;;;19.09;39.10547;964.5227;;;;
2019/05/23 11:57:02;;;;;;;8.4;7.4;;;;;;;19.42;37.33789;964.5339;;;;
2019/05/23 11:59:42;;;;;;;10.1;7;;;;;;;19.75;38.52148;964.4647;;;;
2019/05/23 12:02:31;;;;;;;10.6;7.1;;;;;;;20.18;39.96484;964.4069;;;;
2019/05/23 12:04:57;;;;;;;9.6;6.7;;;;;;;19.79;34.30859;964.3931;;;;
2019/05/23 12:07:26;;;;;;;7.4;6.1;;;;;;;19.8;35.66699;964.4447;;;;
2019/05/23 12:09:46;;;;;;;9;7.4;;;;;;;19.52;36.93066;964.4172;;;;
2019/05/23 12:12:12;;;;;;;8.4;6.9;;;;;;;19.58;37.625;964.3869;;;;
2019/05/23 12:14:37;;;;;;;7.1;6.4;;;;;;;19.65;38.20215;964.4291;;;;
2019/05/23 12:17:08;;;;;;;8.1;7.1;;;;;;;19.53;35.77637;964.3766;;;;
2019/05/23 12:19:40;;;;;;;9.1;6.4;;;;;;;20.08;37.04785;964.312;;;;
2019/05/23 12:22:05;;;;;;;6.8;6.1;;;;;;;20.56;36.18164;964.2728;;;;
2019/05/23 12:24:30;;;;;;;8.2;6.2;;;;;;;20.58;36.58984;964.2469;;;;
2019/05/23 12:26:55;;;;;;;10.1;6.7;;;;;;;20.15;34.18164;964.2802;;;;
2019/05/23 12:29:20;;;;;;;8.6;6.8;;;;;;;20.26;33.5459;964.3331;;;;
2019/05/23 12:31:45;;;;;;;9.6;6.3;;;;;;;20.33;36.03223;964.2289;;;;
2019/05/23 12:34:12;;;;;;;6.8;5.5;;;;;;;20.73;36.86426;964.1487;;;;
2019/05/23 12:36:37;;;;;;;7.3;5.8;;;;;;;20.3;37.05469;964.2126;;;;
2019/05/23 12:39:04;;;;;;;6.5;5.9;;;;;;;20.49;38.26367;964.1874;;;;
2019/05/23 12:41:29;;;;;;;8.5;6;;;;;;;20.63;36.16406;964.2093;;;;
2019/05/23 12:44:01;;;;;;;7.7;6.1;;;;;;;20.94;35.79492;964.1194;;;;
2019/05/23 12:46:27;;;;;;;6.1;5.5;;;;;;;21.45;35.14355;964.1024;;;;
2019/05/23 12:49:07;;;;;;;8.1;6;;;;;;;21.66;34.01172;963.9935;;;;
2019/05/23 12:51:30;;;;;;;7.6;6.3;;;;;;;21.88;37.35547;964.0097;;;;
2019/05/23 12:53:57;;;;;;;7.2;5.7;;;;;;;21.9;34.59277;963.9622;;;;
2019/05/23 12:56:22;;;;;;;7.3;6.4;;;;;;;21.49;33.22168;964.0262;;;;
2019/05/23 12:58:48;;;;;;;7.5;5.6;;;;;;;21.62;33.72168;963.9168;;;;
2019/05/23 13:01:14;;;;;;;6;5;;;;;;;21.52;33.80957;963.9554;;;;
2019/05/23 13:03:39;;;;;;;6.1;5.6;;;;;;;21.71;35.91699;963.9411;;;;
2019/05/23 13:06:13;;;;;;;6;5.2;;;;;;;21.99;37.97461;963.8558;;;;
2019/05/23 13:08:46;;;;;;;6.6;4.5;;;;;;;22.43;36.29883;963.8929;;;;
2019/05/23 13:11:11;;;;;;;7.2;5.1;;;;;;;22.61;37.39258;963.9583;;;;
2019/05/23 13:13:36;;;;;;;6.8;5.1;;;;;;;23;35.13477;963.8223;;;;
2019/05/23 13:16:11;;;;;;;9.5;5.4;;;;;;;22.96;35.52637;963.825;;;;
2019/05/23 13:18:36;;;;;;;5.3;4.5;;;;;;;23.08;34.54004;963.8096;;;;
2019/05/23 13:21:01;;;;;;;7.4;4.5;;;;;;;23.08;34.10938;963.8175;;;;
2019/05/23 13:23:26;;;;;;;8.8;4.8;;;;;;;22;34.09766;963.7441;;;;
2019/05/23 13:25:51;;;;;;;6.1;4.5;;;;;;;22.16;33.18848;963.7399;;;;
2019/05/23 13:28:16;;;;;;;6.9;4.2;;;;;;;22.28;34.10742;963.7325;;;;
2019/05/23 13:30:41;;;;;;;7.1;4.6;;;;;;;22.38;33.93457;963.6948;;;;
2019/05/23 13:33:06;;;;;;;8;4.7;;;;;;;22.84;34.22266;963.6515;;;;
2019/05/23 13:35:32;;;;;;;7;4.3;;;;;;;23.04;32.44922;963.6362;;;;
2019/05/23 13:37:57;;;;;;;8.2;5;;;;;;;22.3;34.39648;963.6153;;;;
2019/05/23 13:40:22;;;;;;;7.8;5.2;;;;;;;22.16;34.3252;963.6172;;;;
2019/05/23 13:42:47;;;;;;;5.8;5.1;;;;;;;22.3;34.81543;963.6589;;;;
2019/05/23 13:45:16;;;;;;;5.5;4.9;;;;;;;21.82;35.14746;963.59;;;;
2019/05/23 13:47:42;;;;;;;6.1;5;;;;;;;21.67;33.91699;963.6627;;;;
2019/05/23 13:50:18;;;;;;;6;4.6;;;;;;;21.55;34.49316;963.6513;;;;
2019/05/23 13:52:43;;;;;;;6.6;4.5;;;;;;;21.37;34.94531;963.5892;;;;
2019/05/23 13:55:20;;;;;;;6.1;4.8;;;;;;;21.73;35.22559;963.5826;;;;
2019/05/23 13:57:52;;;;;;;6.1;5.1;;;;;;;21.77;35.38477;963.562;;;;
2019/05/23 14:00:21;;;;;;;6.1;3.8;;;;;;;22.33;36.80566;963.4833;;;;
2019/05/23 14:02:52;;;;;;;7.4;4.4;;;;;;;21.96;33.81934;963.4828;;;;
2019/05/23 14:05:22;;;;;;;6.5;4.6;;;;;;;22.34;33.50098;963.481;;;;
2019/05/23 14:07:52;;;;;;;5.5;4.4;;;;;;;22.42;34.26172;963.472;;;;
2019/05/23 14:10:17;;;;;;;7.2;4.6;;;;;;;22.52;34.5332;963.4422;;;;
2019/05/23 14:12:54;;;;;;;6.4;4.2;;;;;;;22.53;33.62207;963.3445;;;;
2019/05/23 14:15:25;;;;;;;5.7;3.9;;;;;;;22.9;32.52344;963.4088;;;;
2019/05/23 14:18:00;;;;;;;4.9;4;;;;;;;22.27;34.37012;963.3962;;;;
2019/05/23 14:20:25;;;;;;;6.3;4;;;;;;;22.43;32.93164;963.3744;;;;
2019/05/23 14:22:58;;;;;;;4.9;4;;;;;;;22.23;33.89941;963.363;;;;
2019/05/23 14:25:16;;;;;;;5.4;3.8;;;;;;;22.59;32.10645;963.346;;;;